sensor_id;sensor_type;location;lat;lon;timestamp;pressure;altitude;pressure_sealevel;temperature;humidity
22930;BME280;11630;42.660;23.292;2022-08-01T00:01:15;69863.93;;;21.00;77.33
22930;BME280;11630;42.660;23.292;2022-08-01T00:03:46;69849.60;;;20.94;77.08
22930;BME280;11630;42.660;23.292;2022-08-01T00:06:17;69847.14;;;20.91;77.18
22930;BME280;11630;42.660;23.292;2022-08-01T00:08:47;69841.92;;;20.90;76.84
22930;BME280;11630;42.660;23.292;2022-08-01T00:11:17;69847.96;;;20.93;75.01
22930;BME280;11630;42.660;23.292;2022-08-01T00:13:48;69849.34;;;20.93;74.84
22930;BME280;11630;42.660;23.292;2022-08-01T00:16:19;69831.50;;;20.78;74.15
22930;BME280;11630;42.660;23.292;2022-08-01T00:18:51;69836.73;;;20.79;74.44
22930;BME280;11630;42.660;23.292;2022-08-01T00:21:21;69853.27;;;20.84;74.23
22930;BME280;11630;42.660;23.292;2022-08-01T00:23:52;69837.81;;;20.83;73.95
22930;BME280;11630;42.660;23.292;2022-08-01T00:26:23;69842.50;;;20.86;73.38
22930;BME280;11630;42.660;23.292;2022-08-01T00:28:53;69854.89;;;20.90;73.45
22930;BME280;11630;42.660;23.292;2022-08-01T00:31:24;69822.39;;;20.74;73.33
22930;BME280;11630;42.660;23.292;2022-08-01T00:33:55;69832.64;;;20.72;72.39
22930;BME280;11630;42.660;23.292;2022-08-01T00:36:26;69821.85;;;20.73;72.62
22930;BME280;11630;42.660;23.292;2022-08-01T00:38:56;69826.02;;;20.71;72.95
22930;BME280;11630;42.660;23.292;2022-08-01T00:41:28;69830.72;;;20.69;73.58
22930;BME280;11630;42.660;23.292;2022-08-01T00:44:03;69845.82;;;20.84;76.08
22930;BME280;11630;42.660;23.292;2022-08-01T00:46:30;69821.59;;;20.72;75.38
22930;BME280;11630;42.660;23.292;2022-08-01T00:49:03;69835.90;;;20.82;75.63
22930;BME280;11630;42.660;23.292;2022-08-01T00:51:38;69811.97;;;20.64;76.33
22930;BME280;11630;42.660;23.292;2022-08-01T00:54:08;69827.42;;;20.66;75.86
22930;BME280;11630;42.660;23.292;2022-08-01T00:56:38;69852.69;;;20.88;79.85
22930;BME280;11630;42.660;23.292;2022-08-01T00:59:11;69878.97;;;21.20;80.59
22930;BME280;11630;42.660;23.292;2022-08-01T01:01:41;69897.13;;;21.34;79.46
22930;BME280;11630;42.660;23.292;2022-08-01T01:04:12;69860.56;;;21.07;81.31
22930;BME280;11630;42.660;23.292;2022-08-01T01:06:48;69846.94;;;20.82;80.51
22930;BME280;11630;42.660;23.292;2022-08-01T01:09:28;69794.45;;;20.43;82.91
22930;BME280;11630;42.660;23.292;2022-08-01T01:14:55;69735.22;;;19.87;85.98
22930;BME280;11630;42.660;23.292;2022-08-01T01:17:33;69716.55;;;19.75;86.44
22930;BME280;11630;42.660;23.292;2022-08-01T01:20:03;69747.30;;;19.93;83.35
22930;BME280;11630;42.660;23.292;2022-08-01T01:28:27;69765.69;;;20.13;76.63
22930;BME280;11630;42.660;23.292;2022-08-01T01:30:57;69776.09;;;20.23;74.76
22930;BME280;11630;42.660;23.292;2022-08-01T01:33:29;69761.23;;;20.19;73.63
22930;BME280;11630;42.660;23.292;2022-08-01T01:36:03;69776.36;;;20.24;72.71
22930;BME280;11630;42.660;23.292;2022-08-01T01:38:41;69792.89;;;20.29;71.66
22930;BME280;11630;42.660;23.292;2022-08-01T01:41:14;69786.52;;;20.32;71.94
22930;BME280;11630;42.660;23.292;2022-08-01T01:43:46;69784.84;;;20.36;71.45
22930;BME280;11630;42.660;23.292;2022-08-01T01:46:18;69796.72;;;20.35;68.35
22930;BME280;11630;42.660;23.292;2022-08-01T01:48:49;69795.34;;;20.35;66.96
22930;BME280;11630;42.660;23.292;2022-08-01T01:51:22;69799.44;;;20.40;64.65
22930;BME280;11630;42.660;23.292;2022-08-01T01:53:53;69789.22;;;20.42;64.54
22930;BME280;11630;42.660;23.292;2022-08-01T01:56:25;69793.89;;;20.45;63.80
22930;BME280;11630;42.660;23.292;2022-08-01T01:58:57;69784.56;;;20.37;60.25
22930;BME280;11630;42.660;23.292;2022-08-01T02:01:31;69801.59;;;20.47;58.27
22930;BME280;11630;42.660;23.292;2022-08-01T02:04:04;69820.02;;;20.60;58.30
22930;BME280;11630;42.660;23.292;2022-08-01T02:06:35;69819.45;;;20.60;60.63
22930;BME280;11630;42.660;23.292;2022-08-01T02:09:07;69817.23;;;20.63;59.43
22930;BME280;11630;42.660;23.292;2022-08-01T02:11:39;69805.38;;;20.61;59.15
22930;BME280;11630;42.660;23.292;2022-08-01T02:14:11;69808.72;;;20.56;58.34
22930;BME280;11630;42.660;23.292;2022-08-01T02:16:44;69804.44;;;20.37;57.00
22930;BME280;11630;42.660;23.292;2022-08-01T02:19:16;69786.80;;;20.34;57.91
22930;BME280;11630;42.660;23.292;2022-08-01T02:21:55;69766.47;;;20.20;57.18
22930;BME280;11630;42.660;23.292;2022-08-01T02:25:26;69765.66;;;20.16;57.28
22930;BME280;11630;42.660;23.292;2022-08-01T02:27:15;69780.50;;;20.24;56.93
22930;BME280;11630;42.660;23.292;2022-08-01T02:30:00;69794.72;;;20.45;56.46
22930;BME280;11630;42.660;23.292;2022-08-01T02:32:26;69827.66;;;20.72;59.84
22930;BME280;11630;42.660;23.292;2022-08-01T02:34:56;69844.34;;;20.98;64.68
22930;BME280;11630;42.660;23.292;2022-08-01T02:37:27;69868.03;;;21.07;61.86
22930;BME280;11630;42.660;23.292;2022-08-01T02:39:59;69847.91;;;20.98;58.65
22930;BME280;11630;42.660;23.292;2022-08-01T02:42:31;69864.14;;;21.09;58.87
22930;BME280;11630;42.660;23.292;2022-08-01T02:45:02;69797.67;;;20.56;58.31
22930;BME280;11630;42.660;23.292;2022-08-01T02:47:34;69822.86;;;20.48;59.45
22930;BME280;11630;42.660;23.292;2022-08-01T02:50:09;69780.22;;;20.25;59.88
22930;BME280;11630;42.660;23.292;2022-08-01T02:52:40;69755.20;;;20.11;59.73
22930;BME280;11630;42.660;23.292;2022-08-01T02:55:13;69764.83;;;20.16;60.93
22930;BME280;11630;42.660;23.292;2022-08-01T02:57:45;69752.51;;;20.04;60.76
22930;BME280;11630;42.660;23.292;2022-08-01T03:00:17;69760.77;;;20.07;60.93
22930;BME280;11630;42.660;23.292;2022-08-01T03:02:48;69769.54;;;20.14;60.29
22930;BME280;11630;42.660;23.292;2022-08-01T03:05:22;69766.70;;;20.27;60.22
22930;BME280;11630;42.660;23.292;2022-08-01T03:07:55;69765.06;;;20.23;60.21
22930;BME280;11630;42.660;23.292;2022-08-01T03:10:27;69778.84;;;20.25;59.71
22930;BME280;11630;42.660;23.292;2022-08-01T03:13:00;69787.66;;;20.28;59.46
22930;BME280;11630;42.660;23.292;2022-08-01T03:15:33;69780.76;;;20.28;58.90
22930;BME280;11630;42.660;23.292;2022-08-01T03:18:05;69802.25;;;20.33;59.68
22930;BME280;11630;42.660;23.292;2022-08-01T03:20:36;69777.42;;;20.33;59.75
22930;BME280;11630;42.660;23.292;2022-08-01T03:23:08;69779.34;;;20.33;59.89
22930;BME280;11630;42.660;23.292;2022-08-01T03:25:40;69815.67;;;20.46;59.87
22930;BME280;11630;42.660;23.292;2022-08-01T03:28:15;69806.47;;;20.62;59.68
22930;BME280;11630;42.660;23.292;2022-08-01T03:30:46;69835.92;;;20.77;63.00
22930;BME280;11630;42.660;23.292;2022-08-01T03:33:18;69807.70;;;20.43;61.29
22930;BME280;11630;42.660;23.292;2022-08-01T03:35:52;69806.84;;;20.48;61.79
22930;BME280;11630;42.660;23.292;2022-08-01T03:38:23;69773.90;;;20.21;62.03
22930;BME280;11630;42.660;23.292;2022-08-01T03:40:56;69782.21;;;20.16;61.63
22930;BME280;11630;42.660;23.292;2022-08-01T03:43:32;69773.09;;;20.16;62.12
22930;BME280;11630;42.660;23.292;2022-08-01T03:46:06;69760.41;;;20.20;61.66
22930;BME280;11630;42.660;23.292;2022-08-01T03:48:39;69770.86;;;20.22;62.01
22930;BME280;11630;42.660;23.292;2022-08-01T03:51:10;69759.56;;;20.20;61.60
22930;BME280;11630;42.660;23.292;2022-08-01T03:53:41;69794.48;;;20.41;61.38
22930;BME280;11630;42.660;23.292;2022-08-01T03:56:13;69813.63;;;20.63;66.62
22930;BME280;11630;42.660;23.292;2022-08-01T03:58:45;69820.80;;;20.65;63.28
22930;BME280;11630;42.660;23.292;2022-08-01T04:01:16;69827.64;;;20.75;64.88
22930;BME280;11630;42.660;23.292;2022-08-01T04:03:46;69833.45;;;20.71;60.88
22930;BME280;11630;42.660;23.292;2022-08-01T04:06:18;69807.86;;;20.62;60.84
22930;BME280;11630;42.660;23.292;2022-08-01T04:08:48;69824.64;;;20.71;60.58
22930;BME280;11630;42.660;23.292;2022-08-01T04:11:20;69835.36;;;20.79;60.17
22930;BME280;11630;42.660;23.292;2022-08-01T04:13:52;69840.28;;;20.86;59.57
22930;BME280;11630;42.660;23.292;2022-08-01T04:16:23;69833.98;;;20.79;58.77
22930;BME280;11630;42.660;23.292;2022-08-01T04:18:54;69853.77;;;20.92;58.90
22930;BME280;11630;42.660;23.292;2022-08-01T04:21:26;69842.72;;;20.92;58.74
22930;BME280;11630;42.660;23.292;2022-08-01T04:24:03;69868.83;;;21.12;57.88
22930;BME280;11630;42.660;23.292;2022-08-01T04:26:32;69898.18;;;21.40;61.54
22930;BME280;11630;42.660;23.292;2022-08-01T04:29:04;69889.44;;;21.27;60.24
22930;BME280;11630;42.660;23.292;2022-08-01T04:31:36;69921.33;;;21.48;65.88
22930;BME280;11630;42.660;23.292;2022-08-01T04:34:09;69880.95;;;21.15;67.33
22930;BME280;11630;42.660;23.292;2022-08-01T04:36:41;69902.61;;;21.39;69.65
22930;BME280;11630;42.660;23.292;2022-08-01T04:39:14;69895.93;;;21.43;69.44
22930;BME280;11630;42.660;23.292;2022-08-01T04:41:46;69937.73;;;21.75;68.71
22930;BME280;11630;42.660;23.292;2022-08-01T04:44:17;69853.70;;;21.02;67.74
22930;BME280;11630;42.660;23.292;2022-08-01T04:46:50;69882.34;;;21.13;68.51
22930;BME280;11630;42.660;23.292;2022-08-01T04:49:22;69907.22;;;21.49;66.83
22930;BME280;11630;42.660;23.292;2022-08-01T04:51:54;69859.27;;;20.94;68.23
22930;BME280;11630;42.660;23.292;2022-08-01T04:54:25;69920.08;;;21.69;69.79
22930;BME280;11630;42.660;23.292;2022-08-01T04:56:56;69964.35;;;22.01;66.79
22930;BME280;11630;42.660;23.292;2022-08-01T04:59:31;69992.08;;;22.27;68.59
22930;BME280;11630;42.660;23.292;2022-08-01T05:02:16;69941.43;;;21.63;71.40
22930;BME280;11630;42.660;23.292;2022-08-01T05:04:46;69891.88;;;21.33;73.49
22930;BME280;11630;42.660;23.292;2022-08-01T05:07:16;69892.11;;;21.37;72.52
22930;BME280;11630;42.660;23.292;2022-08-01T05:09:49;69954.77;;;21.88;72.11
22930;BME280;11630;42.660;23.292;2022-08-01T05:12:20;69961.17;;;21.85;71.17
22930;BME280;11630;42.660;23.292;2022-08-01T05:14:50;69949.61;;;21.75;72.17
22930;BME280;11630;42.660;23.292;2022-08-01T05:17:21;69951.48;;;21.85;67.47
22930;BME280;11630;42.660;23.292;2022-08-01T05:19:53;69987.23;;;22.10;67.89
22930;BME280;11630;42.660;23.292;2022-08-01T05:22:26;69994.90;;;22.22;68.28
22930;BME280;11630;42.660;23.292;2022-08-01T05:24:57;70008.92;;;22.36;68.22
22930;BME280;11630;42.660;23.292;2022-08-01T05:27:28;70008.30;;;22.43;67.78
22930;BME280;11630;42.660;23.292;2022-08-01T05:29:58;70036.83;;;22.74;66.55
22930;BME280;11630;42.660;23.292;2022-08-01T05:32:30;70081.48;;;22.97;65.77
22930;BME280;11630;42.660;23.292;2022-08-01T05:35:02;70038.36;;;22.56;57.67
22930;BME280;11630;42.660;23.292;2022-08-01T05:37:33;70038.36;;;22.56;57.67
22930;BME280;11630;42.660;23.292;2022-08-01T05:40:05;70057.53;;;22.81;57.22
22930;BME280;11630;42.660;23.292;2022-08-01T05:42:35;69999.77;;;22.37;55.98
22930;BME280;11630;42.660;23.292;2022-08-01T05:45:07;69997.02;;;22.34;56.42
22930;BME280;11630;42.660;23.292;2022-08-01T05:47:38;70022.02;;;22.58;55.66
22930;BME280;11630;42.660;23.292;2022-08-01T05:50:09;70026.79;;;22.51;55.04
22930;BME280;11630;42.660;23.292;2022-08-01T05:52:40;70038.17;;;22.45;55.85
22930;BME280;11630;42.660;23.292;2022-08-01T05:55:11;70022.53;;;22.61;56.27
22930;BME280;11630;42.660;23.292;2022-08-01T05:57:42;70051.55;;;22.68;56.11
22930;BME280;11630;42.660;23.292;2022-08-01T06:00:13;70049.91;;;22.67;56.57
22930;BME280;11630;42.660;23.292;2022-08-01T06:02:44;70042.69;;;22.68;55.80
22930;BME280;11630;42.660;23.292;2022-08-01T06:05:15;70011.87;;;22.45;56.20
22930;BME280;11630;42.660;23.292;2022-08-01T06:07:49;70034.42;;;22.63;56.37
22930;BME280;11630;42.660;23.292;2022-08-01T06:10:19;70030.05;;;22.56;56.21
22930;BME280;11630;42.660;23.292;2022-08-01T06:12:49;70052.08;;;22.71;56.39
22930;BME280;11630;42.660;23.292;2022-08-01T06:15:20;70093.39;;;23.04;55.50
22930;BME280;11630;42.660;23.292;2022-08-01T06:17:50;70061.41;;;22.82;55.22
22930;BME280;11630;42.660;23.292;2022-08-01T06:20:23;70066.09;;;22.85;55.30
22930;BME280;11630;42.660;23.292;2022-08-01T06:22:54;70088.64;;;23.06;54.51
22930;BME280;11630;42.660;23.292;2022-08-01T06:25:25;70122.67;;;23.41;54.74
22930;BME280;11630;42.660;23.292;2022-08-01T06:27:56;70096.08;;;23.11;54.97
22930;BME280;11630;42.660;23.292;2022-08-01T06:30:26;70107.76;;;23.07;55.08
22930;BME280;11630;42.660;23.292;2022-08-01T06:32:56;70081.23;;;22.95;55.24
22930;BME280;11630;42.660;23.292;2022-08-01T06:35:27;70040.25;;;22.62;55.22
22930;BME280;11630;42.660;23.292;2022-08-01T06:37:59;70046.05;;;22.66;55.73
22930;BME280;11630;42.660;23.292;2022-08-01T06:40:30;70064.59;;;22.66;56.05
22930;BME280;11630;42.660;23.292;2022-08-01T06:42:59;70095.40;;;22.92;55.77
22930;BME280;11630;42.660;23.292;2022-08-01T06:45:31;70072.33;;;23.00;55.14
22930;BME280;11630;42.660;23.292;2022-08-01T06:48:01;70143.36;;;23.54;55.29
22930;BME280;11630;42.660;23.292;2022-08-01T06:50:31;70102.70;;;23.15;54.82
22930;BME280;11630;42.660;23.292;2022-08-01T06:53:02;70102.84;;;23.28;55.03
22930;BME280;11630;42.660;23.292;2022-08-01T06:55:32;70142.91;;;23.43;54.82
22930;BME280;11630;42.660;23.292;2022-08-01T06:58:03;70100.69;;;23.22;55.16
22930;BME280;11630;42.660;23.292;2022-08-01T07:00:33;70079.53;;;23.04;55.73
22930;BME280;11630;42.660;23.292;2022-08-01T07:03:03;70128.84;;;23.34;55.34
22930;BME280;11630;42.660;23.292;2022-08-01T07:05:36;70148.22;;;23.68;55.18
22930;BME280;11630;42.660;23.292;2022-08-01T07:08:07;70160.14;;;23.70;54.44
22930;BME280;11630;42.660;23.292;2022-08-01T07:10:37;70132.52;;;23.26;55.57
22930;BME280;11630;42.660;23.292;2022-08-01T07:13:08;70137.61;;;23.47;55.44
22930;BME280;11630;42.660;23.292;2022-08-01T07:15:39;70175.94;;;23.71;55.45
22930;BME280;11630;42.660;23.292;2022-08-01T07:18:10;70129.09;;;23.38;56.26
22930;BME280;11630;42.660;23.292;2022-08-01T07:20:40;70119.73;;;23.30;56.67
22930;BME280;11630;42.660;23.292;2022-08-01T07:23:13;70172.91;;;23.69;56.53
22930;BME280;11630;42.660;23.292;2022-08-01T07:25:44;70156.55;;;23.68;55.69
22930;BME280;11630;42.660;23.292;2022-08-01T07:28:15;70177.36;;;23.68;56.22
22930;BME280;11630;42.660;23.292;2022-08-01T07:30:46;70179.13;;;23.86;56.30
22930;BME280;11630;42.660;23.292;2022-08-01T07:33:17;70175.76;;;23.91;56.19
22930;BME280;11630;42.660;23.292;2022-08-01T07:35:48;70220.98;;;24.21;56.08
22930;BME280;11630;42.660;23.292;2022-08-01T07:38:19;70235.70;;;24.21;55.00
22930;BME280;11630;42.660;23.292;2022-08-01T07:40:50;70277.48;;;24.66;53.98
22930;BME280;11630;42.660;23.292;2022-08-01T07:43:20;70267.47;;;24.67;53.62
22930;BME280;11630;42.660;23.292;2022-08-01T07:45:52;70175.50;;;23.89;54.22
22930;BME280;11630;42.660;23.292;2022-08-01T07:48:23;70189.44;;;23.84;54.83
22930;BME280;11630;42.660;23.292;2022-08-01T07:50:54;70140.08;;;23.51;55.19
22930;BME280;11630;42.660;23.292;2022-08-01T07:53:25;70166.20;;;23.76;54.89
22930;BME280;11630;42.660;23.292;2022-08-01T07:55:55;70185.72;;;23.95;53.67
22930;BME280;11630;42.660;23.292;2022-08-01T07:58:24;70215.00;;;24.08;52.05
22930;BME280;11630;42.660;23.292;2022-08-01T08:00:56;70223.69;;;24.29;51.65
22930;BME280;11630;42.660;23.292;2022-08-01T08:03:27;70254.40;;;24.40;51.83
22930;BME280;11630;42.660;23.292;2022-08-01T08:05:58;70247.92;;;24.51;51.76
22930;BME280;11630;42.660;23.292;2022-08-01T08:08:30;70259.73;;;24.63;51.17
22930;BME280;11630;42.660;23.292;2022-08-01T08:11:01;70245.75;;;24.46;51.54
22930;BME280;11630;42.660;23.292;2022-08-01T08:13:31;70304.11;;;24.96;51.26
22930;BME280;11630;42.660;23.292;2022-08-01T08:16:02;70250.92;;;24.55;52.12
22930;BME280;11630;42.660;23.292;2022-08-01T08:18:33;70269.55;;;24.53;52.44
22930;BME280;11630;42.660;23.292;2022-08-01T08:21:04;70285.31;;;24.61;52.28
22930;BME280;11630;42.660;23.292;2022-08-01T08:23:35;70334.58;;;25.09;51.37
22930;BME280;11630;42.660;23.292;2022-08-01T08:26:22;70271.70;;;24.60;51.87
22930;BME280;11630;42.660;23.292;2022-08-01T08:28:52;70323.18;;;25.07;51.52
22930;BME280;11630;42.660;23.292;2022-08-01T08:31:23;70278.61;;;24.65;51.37
22930;BME280;11630;42.660;23.292;2022-08-01T08:33:54;70367.63;;;25.39;50.91
22930;BME280;11630;42.660;23.292;2022-08-01T08:36:25;70431.31;;;25.95;50.51
22930;BME280;11630;42.660;23.292;2022-08-01T08:38:58;70362.59;;;25.42;50.10
22930;BME280;11630;42.660;23.292;2022-08-01T08:41:28;70352.47;;;25.50;50.73
22930;BME280;11630;42.660;23.292;2022-08-01T08:44:00;70341.45;;;25.40;50.13
22930;BME280;11630;42.660;23.292;2022-08-01T08:46:31;70384.19;;;25.51;49.47
22930;BME280;11630;42.660;23.292;2022-08-01T08:49:03;70421.98;;;25.84;48.45
22930;BME280;11630;42.660;23.292;2022-08-01T08:51:37;70379.16;;;25.54;48.79
22930;BME280;11630;42.660;23.292;2022-08-01T08:54:07;70337.77;;;25.24;48.12
22930;BME280;11630;42.660;23.292;2022-08-01T08:56:39;70345.44;;;25.34;46.81
22930;BME280;11630;42.660;23.292;2022-08-01T08:59:11;70344.63;;;25.32;47.57
22930;BME280;11630;42.660;23.292;2022-08-01T09:01:42;70378.23;;;25.60;48.07
22930;BME280;11630;42.660;23.292;2022-08-01T09:04:14;70386.23;;;25.68;46.97
22930;BME280;11630;42.660;23.292;2022-08-01T09:06:45;70412.86;;;25.77;45.21
22930;BME280;11630;42.660;23.292;2022-08-01T09:09:16;70451.30;;;26.24;44.23
22930;BME280;11630;42.660;23.292;2022-08-01T09:11:46;70381.81;;;25.64;45.23
22930;BME280;11630;42.660;23.292;2022-08-01T09:14:18;70399.58;;;25.67;43.82
22930;BME280;11630;42.660;23.292;2022-08-01T09:17:06;70442.20;;;26.15;44.67
22930;BME280;11630;42.660;23.292;2022-08-01T09:19:42;70474.59;;;26.33;45.24
22930;BME280;11630;42.660;23.292;2022-08-01T09:22:11;70437.45;;;26.17;45.78
22930;BME280;11630;42.660;23.292;2022-08-01T09:24:42;70425.41;;;26.22;46.18
22930;BME280;11630;42.660;23.292;2022-08-01T09:27:19;70452.95;;;26.26;45.65
22930;BME280;11630;42.660;23.292;2022-08-01T09:29:54;70457.48;;;26.20;45.37
22930;BME280;11630;42.660;23.292;2022-08-01T09:32:25;70573.62;;;27.23;43.07
22930;BME280;11630;42.660;23.292;2022-08-01T09:34:56;70529.99;;;26.86;43.16
22930;BME280;11630;42.660;23.292;2022-08-01T09:37:32;70495.23;;;26.55;43.73
22930;BME280;11630;42.660;23.292;2022-08-01T09:40:02;70546.30;;;26.97;44.48
22930;BME280;11630;42.660;23.292;2022-08-01T09:42:33;70490.97;;;26.62;45.20
22930;BME280;11630;42.660;23.292;2022-08-01T09:45:07;70447.20;;;26.17;46.13
22930;BME280;11630;42.660;23.292;2022-08-01T09:47:39;70468.33;;;26.44;46.55
22930;BME280;11630;42.660;23.292;2022-08-01T09:50:10;70548.92;;;27.12;45.21
22930;BME280;11630;42.660;23.292;2022-08-01T09:52:41;70486.16;;;26.45;46.36
22930;BME280;11630;42.660;23.292;2022-08-01T09:55:13;70521.09;;;26.83;46.56
22930;BME280;11630;42.660;23.292;2022-08-01T09:57:54;70495.91;;;26.69;47.10
22930;BME280;11630;42.660;23.292;2022-08-01T10:00:20;70524.05;;;26.92;46.99
22930;BME280;11630;42.660;23.292;2022-08-01T10:02:52;70529.56;;;26.97;46.80
22930;BME280;11630;42.660;23.292;2022-08-01T10:05:33;70568.69;;;27.16;45.79
22930;BME280;11630;42.660;23.292;2022-08-01T10:08:05;70637.64;;;27.81;43.33
22930;BME280;11630;42.660;23.292;2022-08-01T10:10:36;70595.28;;;27.51;42.72
22930;BME280;11630;42.660;23.292;2022-08-01T10:13:08;70603.86;;;27.58;43.75
22930;BME280;11630;42.660;23.292;2022-08-01T10:15:39;70565.70;;;27.31;45.04
22930;BME280;11630;42.660;23.292;2022-08-01T10:18:11;70613.78;;;27.88;44.19
22930;BME280;11630;42.660;23.292;2022-08-01T10:20:43;70611.51;;;27.72;42.93
22930;BME280;11630;42.660;23.292;2022-08-01T10:23:15;70628.08;;;27.85;44.11
22930;BME280;11630;42.660;23.292;2022-08-01T10:25:46;70591.20;;;27.44;44.71
22930;BME280;11630;42.660;23.292;2022-08-01T10:28:21;70659.05;;;28.07;43.99
22930;BME280;11630;42.660;23.292;2022-08-01T10:30:53;70642.61;;;27.85;42.03
22930;BME280;11630;42.660;23.292;2022-08-01T10:33:24;70718.21;;;28.56;41.88
22930;BME280;11630;42.660;23.292;2022-08-01T10:35:55;70682.33;;;28.23;41.17
22930;BME280;11630;42.660;23.292;2022-08-01T10:38:27;70667.34;;;28.15;41.56
22930;BME280;11630;42.660;23.292;2022-08-01T10:40:58;70624.38;;;27.69;42.68
22930;BME280;11630;42.660;23.292;2022-08-01T10:43:30;70747.21;;;28.83;40.69
22930;BME280;11630;42.660;23.292;2022-08-01T10:46:01;70710.81;;;28.45;41.45
22930;BME280;11630;42.660;23.292;2022-08-01T10:48:56;70707.88;;;28.55;41.20
22930;BME280;11630;42.660;23.292;2022-08-01T10:51:17;70720.68;;;28.59;41.02
22930;BME280;11630;42.660;23.292;2022-08-01T10:53:52;70626.76;;;27.80;41.76
22930;BME280;11630;42.660;23.292;2022-08-01T10:56:23;70701.40;;;28.39;40.64
22930;BME280;11630;42.660;23.292;2022-08-01T10:59:04;70662.70;;;28.07;41.09
22930;BME280;11630;42.660;23.292;2022-08-01T11:01:35;70631.31;;;27.74;42.05
22930;BME280;11630;42.660;23.292;2022-08-01T11:04:12;70654.20;;;27.96;42.47
22930;BME280;11630;42.660;23.292;2022-08-01T11:06:52;70765.47;;;28.97;41.16
22930;BME280;11630;42.660;23.292;2022-08-01T11:09:27;70664.13;;;28.26;41.29
22930;BME280;11630;42.660;23.292;2022-08-01T11:12:12;70764.64;;;28.97;41.04
22930;BME280;11630;42.660;23.292;2022-08-01T11:17:45;70858.61;;;29.79;38.71
22930;BME280;11630;42.660;23.292;2022-08-01T11:20:21;70854.18;;;29.75;38.27
22930;BME280;11630;42.660;23.292;2022-08-01T11:28:21;70796.15;;;29.23;39.30
22930;BME280;11630;42.660;23.292;2022-08-01T11:33:49;70814.06;;;29.43;39.99
22930;BME280;11630;42.660;23.292;2022-08-01T11:36:19;70822.95;;;29.49;39.19
22930;BME280;11630;42.660;23.292;2022-08-01T11:41:33;70799.68;;;29.30;39.37
22930;BME280;11630;42.660;23.292;2022-08-01T11:44:09;70780.31;;;29.15;39.58
22930;BME280;11630;42.660;23.292;2022-08-01T11:52:17;70722.60;;;28.62;40.80
22930;BME280;11630;42.660;23.292;2022-08-01T11:57:27;70812.41;;;29.42;39.83
22930;BME280;11630;42.660;23.292;2022-08-01T11:59:58;70831.78;;;29.57;39.62
22930;BME280;11630;42.660;23.292;2022-08-01T12:02:30;70881.25;;;30.02;38.96
22930;BME280;11630;42.660;23.292;2022-08-01T12:05:07;70828.55;;;29.67;39.52
22930;BME280;11630;42.660;23.292;2022-08-01T12:07:39;70824.83;;;29.54;39.83
22930;BME280;11630;42.660;23.292;2022-08-01T12:10:17;70790.88;;;29.20;39.96
22930;BME280;11630;42.660;23.292;2022-08-01T12:12:58;70885.41;;;30.05;38.74
22930;BME280;11630;42.660;23.292;2022-08-01T12:15:22;70874.02;;;29.98;38.64
22930;BME280;11630;42.660;23.292;2022-08-01T12:18:00;70916.94;;;30.33;37.65
22930;BME280;11630;42.660;23.292;2022-08-01T12:20:36;70881.03;;;29.98;38.17
22930;BME280;11630;42.660;23.292;2022-08-01T12:23:09;70797.22;;;29.27;39.33
22930;BME280;11630;42.660;23.292;2022-08-01T12:25:41;70782.73;;;29.21;39.38
22930;BME280;11630;42.660;23.292;2022-08-01T12:28:14;70868.41;;;29.98;38.79
22930;BME280;11630;42.660;23.292;2022-08-01T12:30:47;70865.47;;;29.89;38.49
22930;BME280;11630;42.660;23.292;2022-08-01T12:33:19;70960.67;;;30.70;36.89
22930;BME280;11630;42.660;23.292;2022-08-01T12:35:50;70870.75;;;29.90;38.27
22930;BME280;11630;42.660;23.292;2022-08-01T12:38:22;70937.66;;;30.53;37.76
22930;BME280;11630;42.660;23.292;2022-08-01T12:40:52;70964.11;;;30.82;37.18
22930;BME280;11630;42.660;23.292;2022-08-01T12:43:24;70881.55;;;30.01;37.76
22930;BME280;11630;42.660;23.292;2022-08-01T12:45:56;70947.77;;;30.68;37.59
22930;BME280;11630;42.660;23.292;2022-08-01T12:48:26;71056.33;;;31.61;35.81
22930;BME280;11630;42.660;23.292;2022-08-01T12:50:59;70959.73;;;30.75;36.66
22930;BME280;11630;42.660;23.292;2022-08-01T12:53:33;71023.11;;;31.31;36.07
22930;BME280;11630;42.660;23.292;2022-08-01T12:56:01;71019.53;;;31.26;35.95
22930;BME280;11630;42.660;23.292;2022-08-01T12:58:33;70927.39;;;30.45;36.73
22930;BME280;11630;42.660;23.292;2022-08-01T13:01:08;70900.34;;;30.18;37.47
22930;BME280;11630;42.660;23.292;2022-08-01T13:03:38;71003.53;;;31.10;36.20
22930;BME280;11630;42.660;23.292;2022-08-01T13:06:14;70931.33;;;30.46;37.02
22930;BME280;11630;42.660;23.292;2022-08-01T13:08:45;70883.77;;;30.03;37.74
22930;BME280;11630;42.660;23.292;2022-08-01T13:11:16;70909.45;;;30.28;37.55
22930;BME280;11630;42.660;23.292;2022-08-01T13:13:48;70910.55;;;30.29;37.09
22930;BME280;11630;42.660;23.292;2022-08-01T13:16:21;70780.12;;;29.09;39.24
22930;BME280;11630;42.660;23.292;2022-08-01T13:18:52;70816.31;;;29.43;39.45
22930;BME280;11630;42.660;23.292;2022-08-01T13:21:27;70822.13;;;29.47;39.12
22930;BME280;11630;42.660;23.292;2022-08-01T13:26:59;70844.25;;;29.66;38.87
22930;BME280;11630;42.660;23.292;2022-08-01T13:29:37;70924.11;;;30.40;37.61
22930;BME280;11630;42.660;23.292;2022-08-01T13:32:15;70956.47;;;30.70;37.28
22930;BME280;11630;42.660;23.292;2022-08-01T13:34:46;70942.07;;;30.57;37.11
22930;BME280;11630;42.660;23.292;2022-08-01T13:37:17;70940.42;;;30.55;37.50
22930;BME280;11630;42.660;23.292;2022-08-01T13:39:48;70863.84;;;29.85;38.95
22930;BME280;11630;42.660;23.292;2022-08-01T13:42:19;70831.50;;;29.58;38.98
22930;BME280;11630;42.660;23.292;2022-08-01T13:44:50;70810.25;;;29.35;39.31
22930;BME280;11630;42.660;23.292;2022-08-01T13:47:20;70865.47;;;29.89;38.89
22930;BME280;11630;42.660;23.292;2022-08-01T13:49:50;70862.44;;;29.85;38.59